Time;durP1;ratioP1;P1;durP2;ratioP2;P2;SDS_P1;SDS_P2;PMS_P1;PMS_P2;Temp;Humidity;BMP_temperature;BMP_pressure;BME280_temperature;BME280_humidity;BME280_pressure;Samples;Min_cycle;Max_cycle;Signal;HPM_P1;HPM_P2
2021/07/10 00:04:37;;;;;;;3.8;1.5;;;;;;;18.93;100;98741.02;;;;
2021/07/10 00:14:37;;;;;;;5;2.1;;;;;;;18.84;100;98740.45;;;;
2021/07/10 00:24:37;;;;;;;5.5;1.8;;;;;;;18.74;100;98751.94;;;;
2021/07/10 00:34:37;;;;;;;2.5;0.9;;;;;;;18.66;100;98769.3;;;;
2021/07/10 00:44:37;;;;;;;3.7;1.4;;;;;;;18.57;100;98778.47;;;;
2021/07/10 00:54:37;;;;;;;5.6;1.3;;;;;;;18.39;100;98787.38;;;;
2021/07/10 01:04:37;;;;;;;4;1;;;;;;;18.22;100;98776.83;;;;
2021/07/10 01:14:37;;;;;;;2.7;0.7;;;;;;;18.07;100;98806.47;;;;
2021/07/10 01:24:37;;;;;;;2.1;1;;;;;;;17.97;100;98782.45;;;;
2021/07/10 01:34:37;;;;;;;3.8;1.1;;;;;;;17.86;100;98789.56;;;;
2021/07/10 01:44:37;;;;;;;3.7;0.9;;;;;;;17.76;100;98806.44;;;;
2021/07/10 01:54:37;;;;;;;2.6;1.1;;;;;;;17.76;100;98811.89;;;;
2021/07/10 02:04:36;;;;;;;1.8;0.5;;;;;;;17.69;100;98805.45;;;;
2021/07/10 02:14:36;;;;;;;2.4;1.1;;;;;;;17.66;100;98826.03;;;;
2021/07/10 02:24:36;;;;;;;2.9;1.2;;;;;;;17.54;100;98847.84;;;;
2021/07/10 02:34:36;;;;;;;2.4;1;;;;;;;17.34;100;98841.44;;;;
2021/07/10 02:44:36;;;;;;;1.8;0.8;;;;;;;17.33;100;98847.22;;;;
2021/07/10 02:54:36;;;;;;;1.9;0.6;;;;;;;17.39;100;98851.31;;;;
2021/07/10 03:04:35;;;;;;;2.7;0.9;;;;;;;17.39;100;98832.24;;;;
2021/07/10 03:14:35;;;;;;;3.1;0.9;;;;;;;17.31;100;98820.34;;;;
2021/07/10 03:24:35;;;;;;;1.1;0.4;;;;;;;17.37;100;98804.53;;;;
2021/07/10 03:34:35;;;;;;;1.6;0.5;;;;;;;17.27;100;98803.09;;;;
2021/07/10 03:44:35;;;;;;;1.8;0.4;;;;;;;17.4;100;98809.28;;;;
2021/07/10 03:54:35;;;;;;;0.9;0.3;;;;;;;17.52;100;98811.98;;;;
2021/07/10 04:04:34;;;;;;;1.2;0.4;;;;;;;17.52;100;98812.77;;;;
2021/07/10 04:14:36;;;;;;;3.6;1.4;;;;;;;17.46;100;98818.79;;;;
2021/07/10 04:24:34;;;;;;;2.4;0.8;;;;;;;17.45;100;98831.65;;;;
2021/07/10 04:34:34;;;;;;;1.9;0.7;;;;;;;17.95;100;98844.72;;;;
2021/07/10 04:44:34;;;;;;;2.3;0.8;;;;;;;18.2;100;98859.01;;;;
2021/07/10 04:54:34;;;;;;;3.9;0.9;;;;;;;18.29;100;98862.34;;;;
2021/07/10 05:04:34;;;;;;;3.5;0.9;;;;;;;18.62;100;98863.97;;;;
2021/07/10 05:14:34;;;;;;;1.5;0.8;;;;;;;18.68;100;98874.27;;;;
2021/07/10 05:24:34;;;;;;;3.8;1.4;;;;;;;18.83;100;98870.73;;;;
2021/07/10 05:34:34;;;;;;;2.2;0.8;;;;;;;18.71;100;98878.25;;;;
2021/07/10 05:44:34;;;;;;;3;0.6;;;;;;;18.54;100;98874.72;;;;
2021/07/10 05:54:34;;;;;;;3.3;1.3;;;;;;;18.88;100;98884.11;;;;
2021/07/10 06:04:34;;;;;;;2.6;1;;;;;;;19.19;100;98896.94;;;;
2021/07/10 06:14:34;;;;;;;4.3;1.2;;;;;;;19.31;100;98907.73;;;;
2021/07/10 06:24:34;;;;;;;2.6;1.1;;;;;;;19.61;100;98910.73;;;;
2021/07/10 06:34:34;;;;;;;2.1;1;;;;;;;19.82;100;98913.91;;;;
2021/07/10 06:44:34;;;;;;;1.7;0.6;;;;;;;20.18;100;98904.45;;;;
2021/07/10 06:54:34;;;;;;;3.4;0.9;;;;;;;20.69;100;98904.22;;;;
2021/07/10 07:04:34;;;;;;;3.2;1;;;;;;;21.06;100;98908.73;;;;
2021/07/10 07:14:35;;;;;;;1.6;0.9;;;;;;;21.08;100;98913.83;;;;
2021/07/10 07:24:35;;;;;;;3.5;1.3;;;;;;;21.06;100;98913.41;;;;
2021/07/10 07:34:35;;;;;;;2.9;1.4;;;;;;;21.09;100;98918.16;;;;
2021/07/10 07:44:36;;;;;;;1.7;0.7;;;;;;;21.47;100;98920.7;;;;
2021/07/10 07:54:36;;;;;;;5.3;1.5;;;;;;;20.82;100;98920.09;;;;
2021/07/10 08:04:36;;;;;;;3.4;0.8;;;;;;;21.17;100;98927.31;;;;
2021/07/10 08:14:37;;;;;;;3.5;1.2;;;;;;;21.18;100;98921.44;;;;
2021/07/10 08:24:37;;;;;;;2.2;0.9;;;;;;;21.61;100;98928.33;;;;
2021/07/10 08:34:37;;;;;;;2.1;0.8;;;;;;;22.04;100;98930.45;;;;
2021/07/10 08:44:38;;;;;;;1.7;0.8;;;;;;;22.41;100;98940.66;;;;
2021/07/10 08:54:38;;;;;;;2.8;0.8;;;;;;;21.9;100;98930.27;;;;
2021/07/10 09:04:39;;;;;;;3.1;1;;;;;;;22.46;100;98932.06;;;;
2021/07/10 09:14:39;;;;;;;3.5;1.3;;;;;;;22.69;98.20313;98935.47;;;;
2021/07/10 09:24:39;;;;;;;1.7;1.2;;;;;;;22.64;97.7207;98924.78;;;;
2021/07/10 09:34:41;;;;;;;1.5;0.8;;;;;;;22.49;96.5957;98929.34;;;;
2021/07/10 09:44:40;;;;;;;3.9;1.5;;;;;;;23.06;99.19629;98927.91;;;;
2021/07/10 09:54:40;;;;;;;2.9;1.3;;;;;;;23.45;97.36426;98921.91;;;;
2021/07/10 10:04:41;;;;;;;3.5;1.2;;;;;;;23.66;95.82715;98949.55;;;;
2021/07/10 10:14:42;;;;;;;3.3;1.5;;;;;;;23.91;94.10059;98936.69;;;;
2021/07/10 10:24:43;;;;;;;2.2;0.8;;;;;;;23.78;92.37012;98931.89;;;;
2021/07/10 10:34:43;;;;;;;2;1.1;;;;;;;24.31;92.58398;98932.11;;;;
2021/07/10 10:44:44;;;;;;;3.8;1.8;;;;;;;24.18;94.23535;98931.69;;;;
2021/07/10 10:54:44;;;;;;;13;1.8;;;;;;;23.69;93.86523;98909.44;;;;
2021/07/10 11:04:55;;;;;;;9.5;2;;;;;;;23.34;97.14453;98910.02;;;;
2021/07/10 11:14:46;;;;;;;2.9;1.2;;;;;;;24.25;95.92871;98895.11;;;;
2021/07/10 11:24:46;;;;;;;2.6;1.2;;;;;;;24.29;89.68066;98902.21;;;;
2021/07/10 11:34:47;;;;;;;3.7;1.5;;;;;;;24.04;92.47168;98888.34;;;;
2021/07/10 11:44:48;;;;;;;3.1;1.3;;;;;;;24.65;89.24121;98896.72;;;;
2021/07/10 11:54:48;;;;;;;3.6;1.2;;;;;;;25.19;87.42871;98892.78;;;;
2021/07/10 12:04:49;;;;;;;2.9;1.2;;;;;;;25.65;87.97461;98885.17;;;;
2021/07/10 12:14:50;;;;;;;2.8;1.2;;;;;;;26.03;81.4834;98875.16;;;;
2021/07/10 12:24:51;;;;;;;3;1;;;;;;;25.8;85.30176;98864.6;;;;
2021/07/10 12:34:52;;;;;;;2.2;1;;;;;;;26.04;80.7627;98866.45;;;;
2021/07/10 12:44:53;;;;;;;3;0.7;;;;;;;25.68;85.61426;98864.28;;;;
2021/07/10 12:54:55;;;;;;;3.8;1.4;;;;;;;26.72;79.86621;98858.5;;;;
2021/07/10 13:04:56;;;;;;;2;0.8;;;;;;;26.91;72.2168;98852.41;;;;
2021/07/10 13:14:55;;;;;;;2;1;;;;;;;27.39;74.2168;98857.04;;;;
2021/07/10 13:24:56;;;;;;;3;1.8;;;;;;;26.15;79.55469;98849.02;;;;
2021/07/10 13:34:57;;;;;;;4.3;1.9;;;;;;;26.32;76.63867;98842.61;;;;
2021/07/10 13:44:58;;;;;;;3;1.2;;;;;;;26.54;76.72266;98832.97;;;;
2021/07/10 13:54:59;;;;;;;3.2;1.1;;;;;;;25.56;80.34863;98823.3;;;;
2021/07/10 14:05:00;;;;;;;2.9;1.5;;;;;;;26.37;80.0957;98822.84;;;;
2021/07/10 14:15:01;;;;;;;3.3;1.5;;;;;;;26.4;78.33594;98816.5;;;;
2021/07/10 14:25:02;;;;;;;1.6;0.8;;;;;;;26.77;75.9541;98808.26;;;;
2021/07/10 14:35:03;;;;;;;3.4;1.3;;;;;;;27.37;75.22363;98796.56;;;;
2021/07/10 14:45:04;;;;;;;1.9;0.9;;;;;;;27.71;73.38867;98788.23;;;;
2021/07/10 14:55:05;;;;;;;3.3;1.2;;;;;;;28.06;73.84375;98786.14;;;;
2021/07/10 15:05:06;;;;;;;2.5;1.1;;;;;;;28.7;70.31055;98781.19;;;;
2021/07/10 15:15:07;;;;;;;1.7;0.8;;;;;;;31.07;60.53711;98777.83;;;;
2021/07/10 15:25:09;;;;;;;3.5;1.7;;;;;;;31.6;55.76758;98777.11;;;;
2021/07/10 15:35:10;;;;;;;2;0.9;;;;;;;33.04;51.71094;98764.43;;;;
2021/07/10 15:45:12;;;;;;;2.1;1.1;;;;;;;33.95;51.33496;98756.62;;;;
2021/07/10 15:55:15;;;;;;;5;1.1;;;;;;;34.77;45.66016;98752.79;;;;
2021/07/10 16:05:18;;;;;;;3.6;1.4;;;;;;;35.45;41.69043;98749.76;;;;
2021/07/10 16:15:21;;;;;;;3.4;1.3;;;;;;;34.65;46.41699;98742.5;;;;
2021/07/10 16:25:22;;;;;;;3.7;1.5;;;;;;;35.06;44.58105;98751.53;;;;
2021/07/10 16:35:23;;;;;;;4;2.2;;;;;;;35.22;43.03027;98745.62;;;;
2021/07/10 16:45:26;;;;;;;4.4;2;;;;;;;35.61;42.59766;98752.25;;;;
2021/07/10 16:55:28;;;;;;;5.3;2.6;;;;;;;34.64;44.39551;98759.78;;;;
2021/07/10 17:05:30;;;;;;;3.5;1.4;;;;;;;34.8;45.07422;98760.25;;;;
2021/07/10 17:15:32;;;;;;;6.7;3.6;;;;;;;30.83;55.06641;98757.77;;;;
2021/07/10 17:25:34;;;;;;;5.2;2.2;;;;;;;27.5;65.97461;98738.68;;;;
2021/07/10 17:35:36;;;;;;;4.3;1.6;;;;;;;27.32;68.40527;98740.86;;;;
2021/07/10 17:45:37;;;;;;;4.6;2.4;;;;;;;27.87;67.77246;98755.14;;;;
2021/07/10 17:55:38;;;;;;;7;3.6;;;;;;;28.52;65.13281;98757.7;;;;
2021/07/10 18:05:39;;;;;;;6.8;2.7;;;;;;;28.82;62.60449;98763.91;;;;
2021/07/10 18:15:41;;;;;;;5.2;2.5;;;;;;;26.64;71.78613;98759.41;;;;
2021/07/10 18:25:43;;;;;;;5.8;2.6;;;;;;;25.55;73.75195;98767.3;;;;
2021/07/10 18:35:42;;;;;;;6.5;4.2;;;;;;;24.59;79.75879;98769.55;;;;
2021/07/10 18:45:45;;;;;;;7.7;4.7;;;;;;;23.69;85.95703;98758.08;;;;
2021/07/10 18:55:43;;;;;;;7.7;5.3;;;;;;;22.89;92.20117;98782.89;;;;
2021/07/10 19:05:44;;;;;;;10.2;5.5;;;;;;;22.15;98.13086;98776.03;;;;
2021/07/10 19:15:44;;;;;;;11.4;7.4;;;;;;;21.81;100;98767.06;;;;
2021/07/10 19:25:44;;;;;;;10.9;8.1;;;;;;;21.26;100;98775.09;;;;
2021/07/10 19:35:44;;;;;;;14.4;8.9;;;;;;;20.8;100;98765.44;;;;
2021/07/10 19:45:44;;;;;;;10.6;6.5;;;;;;;20.39;100;98748.03;;;;
2021/07/10 19:55:44;;;;;;;11.1;7.8;;;;;;;19.99;100;98765.73;;;;
2021/07/10 20:05:44;;;;;;;12;5.4;;;;;;;19.74;100;98778.2;;;;
2021/07/10 20:15:44;;;;;;;6.9;4.2;;;;;;;19.56;100;98777.86;;;;
2021/07/10 20:25:44;;;;;;;8.2;5.5;;;;;;;19.33;100;98787.13;;;;
2021/07/10 20:35:44;;;;;;;8.9;6.3;;;;;;;19.08;100;98783.89;;;;
2021/07/10 20:45:44;;;;;;;5.4;3.5;;;;;;;18.75;100;98788.99;;;;
2021/07/10 20:55:43;;;;;;;6.8;3;;;;;;;18.64;100;98788.75;;;;
2021/07/10 21:05:43;;;;;;;5.6;2.8;;;;;;;18.47;100;98786.38;;;;
2021/07/10 21:15:42;;;;;;;4.7;2.6;;;;;;;18.26;100;98774.95;;;;
2021/07/10 21:25:42;;;;;;;4.5;2.7;;;;;;;18.24;100;98778.05;;;;
2021/07/10 21:35:42;;;;;;;3.9;1.8;;;;;;;18.17;100;98786.05;;;;
2021/07/10 21:45:41;;;;;;;4.3;2;;;;;;;18.04;100;98777.18;;;;
2021/07/10 21:55:41;;;;;;;5.6;2.2;;;;;;;17.89;100;98761.59;;;;
2021/07/10 22:05:41;;;;;;;5.4;2.3;;;;;;;17.78;100;98755.06;;;;
2021/07/10 22:15:40;;;;;;;5;2.5;;;;;;;17.51;100;98744.98;;;;
2021/07/10 22:25:40;;;;;;;6.9;2.7;;;;;;;17.43;100;98746.71;;;;
2021/07/10 22:35:39;;;;;;;5.1;2.3;;;;;;;17.38;100;98729.84;;;;
2021/07/10 22:45:39;;;;;;;7.9;4.6;;;;;;;17.27;100;98726.83;;;;
2021/07/10 22:55:39;;;;;;;5.4;2.7;;;;;;;17.09;100;98720.88;;;;
2021/07/10 23:05:38;;;;;;;11.7;3.9;;;;;;;16.96;100;98730.24;;;;
2021/07/10 23:15:38;;;;;;;5.9;3.3;;;;;;;16.88;100;98720.28;;;;
2021/07/10 23:25:37;;;;;;;8;5.2;;;;;;;16.89;100;98721.08;;;;
2021/07/10 23:35:37;;;;;;;6.9;4.1;;;;;;;16.9;100;98726.16;;;;
2021/07/10 23:45:36;;;;;;;5.9;4;;;;;;;16.87;100;98717.92;;;;
2021/07/10 23:55:36;;;;;;;7.9;4.8;;;;;;;16.8;100;98710.31;;;;
